createdAt,value
2023-01-13T00:00:13.690Z,73.90
2023-01-13T00:01:18.226Z,73.99
2023-01-13T00:02:19.879Z,74.22
2023-01-13T00:03:21.813Z,74.44
2023-01-13T00:04:23.622Z,74.65
2023-01-13T00:05:27.112Z,74.90
2023-01-13T00:06:29.956Z,74.59
2023-01-13T00:07:31.672Z,74.65
2023-01-13T00:08:33.726Z,74.76
2023-01-13T00:09:36.967Z,74.68
2023-01-13T00:10:38.922Z,75.13
2023-01-13T00:11:40.674Z,75.32
2023-01-13T00:12:43.646Z,75.29
2023-01-13T00:13:45.566Z,75.27
2023-01-13T00:14:47.661Z,75.00
2023-01-13T00:15:58.264Z,75.22
2023-01-13T00:16:59.874Z,74.52
2023-01-13T00:18:01.700Z,74.16
2023-01-13T00:19:03.417Z,73.91
2023-01-13T00:20:05.906Z,75.22
2023-01-13T00:21:13.897Z,75.34
2023-01-13T00:22:16.164Z,75.68
2023-01-13T00:23:17.885Z,77.73
2023-01-13T00:24:19.396Z,77.99
2023-01-13T00:25:21.103Z,79.53
2023-01-13T00:26:25.726Z,79.36
2023-01-13T00:27:28.976Z,78.45
2023-01-13T00:28:31.057Z,79.87
2023-01-13T00:29:32.605Z,80.92
2023-01-13T00:30:34.421Z,81.37
2023-01-13T00:31:36.039Z,81.43
2023-01-13T00:32:38.085Z,80.79
2023-01-13T00:33:40.753Z,80.71
2023-01-13T00:34:42.660Z,82.11
2023-01-13T00:35:44.308Z,81.18
2023-01-13T00:36:46.057Z,81.96
2023-01-13T00:37:47.829Z,80.73
2023-01-13T00:38:51.365Z,79.88
2023-01-13T00:39:54.118Z,81.76
2023-01-13T00:41:08.221Z,81.39
2023-01-13T00:42:28.396Z,81.75
2023-01-13T00:43:32.570Z,82.52
2023-01-13T00:44:34.225Z,82.20
2023-01-13T00:45:35.927Z,80.74
2023-01-13T00:46:37.744Z,80.67
2023-01-13T00:47:39.543Z,81.53
2023-01-13T00:48:41.335Z,81.72
2023-01-13T00:49:43.175Z,81.51
2023-01-13T00:50:45.288Z,80.25
2023-01-13T00:51:48.511Z,80.05
2023-01-13T00:52:51.061Z,80.10
2023-01-13T00:53:52.745Z,79.77
2023-01-13T00:54:54.371Z,81.20
2023-01-13T00:56:04.397Z,81.01
2023-01-13T00:57:07.619Z,81.58
2023-01-13T00:58:09.233Z,82.94
2023-01-13T00:59:13.457Z,83.39
2023-01-13T01:00:15.499Z,83.81
2023-01-13T01:01:22.069Z,85.16
2023-01-13T01:02:23.711Z,87.95
2023-01-13T01:03:25.510Z,86.74
2023-01-13T01:04:27.058Z,86.66
2023-01-13T01:05:28.977Z,86.68
2023-01-13T01:06:30.816Z,86.83
2023-01-13T01:07:32.397Z,88.13
2023-01-13T01:08:35.667Z,89.38
2023-01-13T01:09:39.837Z,88.63
2023-01-13T01:10:41.730Z,89.00
2023-01-13T01:11:44.316Z,92.97
2023-01-13T01:12:47.081Z,92.89
2023-01-13T01:13:52.064Z,92.96
2023-01-13T01:14:56.648Z,93.37
2023-01-13T01:16:00.207Z,94.06
2023-01-13T01:17:02.371Z,93.78
2023-01-13T01:18:03.983Z,94.69
2023-01-13T01:19:06.587Z,95.20
2023-01-13T01:20:08.853Z,95.53
2023-01-13T01:21:11.677Z,97.24
2023-01-13T01:22:15.477Z,97.84
2023-01-13T01:23:17.167Z,99.31
2023-01-13T01:24:19.001Z,100.00
2023-01-13T01:25:22.446Z,100.00
2023-01-13T01:26:26.019Z,100.00
2023-01-13T01:27:28.369Z,100.00
2023-01-13T01:28:30.306Z,100.00
2023-01-13T01:29:33.100Z,100.00
2023-01-13T01:30:35.079Z,100.00
2023-01-13T01:31:37.210Z,100.00
2023-01-13T01:32:39.187Z,100.00
2023-01-13T01:33:42.239Z,100.00
2023-01-13T01:34:44.119Z,100.00
2023-01-13T01:35:48.115Z,100.00
2023-01-13T01:36:49.708Z,99.39
2023-01-13T01:37:51.650Z,98.14
2023-01-13T01:38:55.289Z,99.29
2023-01-13T01:39:56.945Z,99.12
2023-01-13T01:40:58.906Z,99.28
2023-01-13T01:42:20.620Z,100.00
2023-01-13T01:44:03.150Z,100.00
2023-01-13T01:45:19.700Z,99.00
2023-01-13T01:46:21.855Z,98.94
2023-01-13T01:47:24.923Z,100.00
2023-01-13T01:48:30.115Z,100.00
2023-01-13T01:49:33.972Z,100.00
2023-01-13T01:50:39.333Z,100.00
2023-01-13T01:51:46.939Z,100.00
2023-01-13T01:52:56.906Z,100.00
2023-01-13T01:54:02.794Z,99.42
2023-01-13T01:55:17.714Z,98.76
2023-01-13T01:56:21.236Z,98.95
2023-01-13T01:57:32.725Z,98.84
2023-01-13T01:58:52.662Z,99.18
2023-01-13T01:59:54.579Z,99.70
2023-01-13T02:00:56.391Z,97.93
2023-01-13T02:01:59.039Z,99.95
2023-01-13T02:03:03.923Z,100.00
2023-01-13T02:04:13.031Z,99.19
2023-01-13T02:05:14.705Z,99.89
2023-01-13T02:06:17.142Z,100.00
2023-01-13T02:07:26.612Z,100.00
2023-01-13T02:08:29.080Z,100.00
2023-01-13T02:09:32.619Z,100.00
2023-01-13T02:10:34.523Z,100.00
2023-01-13T02:11:55.714Z,100.00
2023-01-13T02:13:01.389Z,100.00
2023-01-13T02:14:04.404Z,100.00
2023-01-13T02:15:13.393Z,100.00
2023-01-13T02:16:22.109Z,100.00
2023-01-13T02:17:39.802Z,100.00
2023-01-13T02:19:07.718Z,100.00
2023-01-13T02:20:31.409Z,100.00
2023-01-13T02:22:03.323Z,100.00
2023-01-13T02:24:00.632Z,100.00
2023-01-13T02:25:13.486Z,100.00
2023-01-13T02:26:18.214Z,100.00
2023-01-13T02:27:52.799Z,100.00
2023-01-13T02:29:47.530Z,100.00
2023-01-13T02:31:31.359Z,100.00
2023-01-13T02:32:44.607Z,97.80
2023-01-13T02:34:09.148Z,96.93
2023-01-13T02:35:26.623Z,99.63
2023-01-13T02:36:47.992Z,97.74
2023-01-13T02:37:51.036Z,95.88
2023-01-13T02:38:58.527Z,95.45
2023-01-13T02:40:10.122Z,95.29
2023-01-13T02:41:43.422Z,96.02
2023-01-13T02:43:11.804Z,94.06
2023-01-13T02:44:21.130Z,94.35
2023-01-13T02:45:26.337Z,93.79
2023-01-13T02:46:31.795Z,92.56
2023-01-13T02:47:38.668Z,91.72
2023-01-13T02:48:44.869Z,90.71
2023-01-13T02:49:51.226Z,90.55
2023-01-13T02:51:03.905Z,89.35
2023-01-13T02:52:11.802Z,89.05
2023-01-13T02:53:25.739Z,89.51
2023-01-13T02:54:30.916Z,87.95
2023-01-13T02:55:37.544Z,87.74
2023-01-13T02:56:45.093Z,87.47
2023-01-13T02:57:48.640Z,86.88
2023-01-13T02:58:51.444Z,87.12
2023-01-13T02:59:56.332Z,86.45
2023-01-13T03:00:58.427Z,86.24
2023-01-13T03:02:04.484Z,87.38
2023-01-13T03:03:08.264Z,86.69
2023-01-13T03:04:15.285Z,86.61
2023-01-13T03:05:19.872Z,84.64
2023-01-13T03:06:43.317Z,84.84
2023-01-13T03:08:29.661Z,85.04
2023-01-13T03:09:42.090Z,84.45
2023-01-13T03:10:55.888Z,84.63
2023-01-13T03:12:15.848Z,84.26
2023-01-13T03:13:42.649Z,83.97
2023-01-13T03:14:50.602Z,84.10
2023-01-13T03:16:05.372Z,83.24
2023-01-13T03:17:14.085Z,83.42
2023-01-13T03:18:40.521Z,82.95
2023-01-13T03:19:46.723Z,82.39
2023-01-13T03:21:09.972Z,83.67
2023-01-13T03:22:18.655Z,83.11
2023-01-13T03:23:32.311Z,82.59
2023-01-13T03:24:42.300Z,82.20
2023-01-13T03:25:54.679Z,82.17
2023-01-13T03:27:06.388Z,82.74
2023-01-13T03:28:38.638Z,83.43
2023-01-13T03:29:42.869Z,83.67
2023-01-13T03:30:53.813Z,82.66
2023-01-13T03:32:05.077Z,82.15
2023-01-13T03:33:29.360Z,82.11
2023-01-13T03:34:53.728Z,82.16
2023-01-13T03:36:05.697Z,81.63
2023-01-13T03:37:09.731Z,81.66
2023-01-13T03:38:21.187Z,82.72
2023-01-13T03:39:33.197Z,81.97
2023-01-13T03:40:42.001Z,81.41
2023-01-13T03:41:57.160Z,81.64
2023-01-13T03:43:35.881Z,81.18
2023-01-13T03:44:53.796Z,82.12
2023-01-13T03:46:01.850Z,81.46
2023-01-13T03:47:12.921Z,81.71
2023-01-13T03:48:20.223Z,81.74
2023-01-13T03:49:27.015Z,80.52
2023-01-13T03:50:35.983Z,81.37
2023-01-13T03:51:41.350Z,82.09
2023-01-13T03:53:07.318Z,81.27
2023-01-13T03:54:13.814Z,82.14
2023-01-13T03:55:22.803Z,81.45
2023-01-13T03:56:36.743Z,82.20
2023-01-13T03:58:02.579Z,81.85
2023-01-13T03:59:07.288Z,81.96
2023-01-13T04:00:12.778Z,82.33
2023-01-13T04:01:20.774Z,82.49
2023-01-13T04:02:46.000Z,83.01
2023-01-13T04:04:10.470Z,83.41
2023-01-13T04:05:13.254Z,83.05
2023-01-13T04:06:26.412Z,82.74
2023-01-13T04:07:56.198Z,83.29
2023-01-13T04:09:06.887Z,82.64
2023-01-13T04:10:12.617Z,83.12
2023-01-13T04:11:37.547Z,82.74
2023-01-13T04:13:00.908Z,83.01
2023-01-13T04:14:06.046Z,83.07
2023-01-13T04:15:08.351Z,83.08
2023-01-13T04:16:12.176Z,83.37
2023-01-13T04:17:14.713Z,83.07
2023-01-13T04:18:20.554Z,82.70
2023-01-13T04:19:22.332Z,82.98
2023-01-13T04:20:24.470Z,82.90
2023-01-13T04:21:26.730Z,83.34
2023-01-13T04:22:28.640Z,83.18
2023-01-13T04:23:31.664Z,83.58
2023-01-13T04:24:33.701Z,83.54
2023-01-13T04:25:35.893Z,83.46
2023-01-13T04:26:37.717Z,84.06
2023-01-13T04:27:39.822Z,84.10
2023-01-13T04:28:41.679Z,83.79
2023-01-13T04:29:43.993Z,84.17
2023-01-13T04:30:47.092Z,83.96
2023-01-13T04:31:49.261Z,83.75
2023-01-13T04:32:50.908Z,83.91
2023-01-13T04:33:52.770Z,84.01
2023-01-13T04:34:55.239Z,83.60
2023-01-13T04:35:57.135Z,84.37
2023-01-13T04:36:59.165Z,83.92
2023-01-13T04:38:10.010Z,83.85
2023-01-13T04:39:12.036Z,85.08
2023-01-13T04:40:14.044Z,84.56
2023-01-13T04:41:15.779Z,85.03
2023-01-13T04:42:18.810Z,85.56
2023-01-13T04:43:20.425Z,85.17
2023-01-13T04:44:22.556Z,84.57
2023-01-13T04:45:24.362Z,84.72
2023-01-13T04:46:26.017Z,85.27
2023-01-13T04:47:28.012Z,85.71
2023-01-13T04:48:29.731Z,87.36
2023-01-13T04:49:33.411Z,86.06
2023-01-13T04:50:35.530Z,85.78
2023-01-13T04:51:37.135Z,86.03
2023-01-13T04:52:42.241Z,86.01
2023-01-13T04:53:44.214Z,86.02
2023-01-13T04:54:45.838Z,85.94
2023-01-13T04:55:49.971Z,86.11
2023-01-13T04:56:52.383Z,86.21
2023-01-13T04:57:56.531Z,86.05
2023-01-13T04:58:58.487Z,86.22
2023-01-13T05:00:00.518Z,86.39
2023-01-13T05:01:02.151Z,86.42
2023-01-13T05:02:08.813Z,86.75
2023-01-13T05:03:10.664Z,87.11
2023-01-13T05:04:12.376Z,86.93
2023-01-13T05:05:15.792Z,87.04
2023-01-13T05:06:17.798Z,87.15
2023-01-13T05:07:19.701Z,87.41
2023-01-13T05:08:21.430Z,87.74
2023-01-13T05:09:24.317Z,87.88
2023-01-13T05:10:27.082Z,88.12
2023-01-13T05:11:48.952Z,88.00
2023-01-13T05:13:08.886Z,88.28
2023-01-13T05:14:29.553Z,88.85
2023-01-13T05:15:49.908Z,89.19
2023-01-13T05:17:00.709Z,89.15
2023-01-13T05:18:02.952Z,89.94
2023-01-13T05:19:04.472Z,90.09
2023-01-13T05:20:07.188Z,90.65
2023-01-13T05:21:29.200Z,90.28
2023-01-13T05:22:53.549Z,89.97
2023-01-13T05:24:14.503Z,90.59
2023-01-13T05:25:22.093Z,90.67
2023-01-13T05:26:24.420Z,91.11
2023-01-13T05:27:26.725Z,90.79
2023-01-13T05:28:33.458Z,90.86
2023-01-13T05:29:35.334Z,90.31
2023-01-13T05:30:39.577Z,89.71
2023-01-13T05:31:41.509Z,89.42
2023-01-13T05:32:43.667Z,89.51
2023-01-13T05:33:45.771Z,89.86
2023-01-13T05:34:47.672Z,89.88
2023-01-13T05:35:49.829Z,90.50
2023-01-13T05:36:51.808Z,90.32
2023-01-13T05:37:57.949Z,89.44
2023-01-13T05:38:59.991Z,88.57
2023-01-13T05:40:20.804Z,88.71
2023-01-13T05:41:41.570Z,88.21
2023-01-13T05:43:03.490Z,87.08
2023-01-13T05:44:05.396Z,87.13
2023-01-13T05:45:07.719Z,86.47
2023-01-13T05:46:10.214Z,85.39
2023-01-13T05:47:12.083Z,85.31
2023-01-13T05:48:14.565Z,85.16
2023-01-13T05:49:16.254Z,84.79
2023-01-13T05:50:18.363Z,85.14
2023-01-13T05:51:26.571Z,86.22
2023-01-13T05:52:29.281Z,84.32
2023-01-13T05:53:34.490Z,84.43
2023-01-13T05:54:36.441Z,83.57
2023-01-13T05:55:42.374Z,83.15
2023-01-13T05:56:44.374Z,84.18
2023-01-13T05:57:46.253Z,82.99
2023-01-13T05:58:48.025Z,83.59
2023-01-13T05:59:50.072Z,83.85
2023-01-13T06:00:52.686Z,83.37
2023-01-13T06:01:54.378Z,82.93
2023-01-13T06:02:56.663Z,83.34
2023-01-13T06:03:59.647Z,82.41
2023-01-13T06:05:01.574Z,81.98
2023-01-13T06:06:04.588Z,82.22
2023-01-13T06:07:06.195Z,81.92
2023-01-13T06:08:08.963Z,81.66
2023-01-13T06:09:11.461Z,81.22
2023-01-13T06:10:16.232Z,81.08
2023-01-13T06:11:18.315Z,81.34
2023-01-13T06:12:20.300Z,81.56
2023-01-13T06:13:22.527Z,81.28
2023-01-13T06:14:25.679Z,81.50
2023-01-13T06:15:28.908Z,82.01
2023-01-13T06:16:32.030Z,81.77
2023-01-13T06:17:34.043Z,81.30
2023-01-13T06:18:36.156Z,81.54
2023-01-13T06:19:38.759Z,81.57
2023-01-13T06:20:40.726Z,81.29
2023-01-13T06:21:48.560Z,81.56
2023-01-13T06:22:53.185Z,81.92
2023-01-13T06:23:55.333Z,82.58
2023-01-13T06:24:57.392Z,82.35
2023-01-13T06:26:22.701Z,83.40
2023-01-13T06:27:25.419Z,83.60
2023-01-13T06:28:27.854Z,84.13
2023-01-13T06:29:29.586Z,84.50
2023-01-13T06:30:37.702Z,85.81
2023-01-13T06:31:39.748Z,87.45
2023-01-13T06:32:46.005Z,90.09
2023-01-13T06:33:59.029Z,93.09
2023-01-13T06:35:05.933Z,95.18
2023-01-13T06:36:14.313Z,98.22
2023-01-13T06:37:20.660Z,100.00
2023-01-13T06:38:26.319Z,100.00
2023-01-13T06:39:31.239Z,100.00
2023-01-13T06:40:34.499Z,100.00
2023-01-13T06:41:54.940Z,100.00
2023-01-13T06:43:17.551Z,100.00
2023-01-13T06:44:21.205Z,100.00
2023-01-13T06:45:25.831Z,100.00
2023-01-13T06:46:29.322Z,100.00
2023-01-13T06:47:31.734Z,100.00
2023-01-13T06:48:36.038Z,100.00
2023-01-13T06:49:38.457Z,100.00
2023-01-13T06:50:42.445Z,100.00
2023-01-13T06:51:45.112Z,100.00
2023-01-13T06:52:47.208Z,100.00
2023-01-13T06:53:49.501Z,100.00
2023-01-13T06:54:51.383Z,100.00
2023-01-13T06:55:54.502Z,100.00
2023-01-13T06:56:56.610Z,100.00
2023-01-13T06:58:00.127Z,100.00
2023-01-13T06:59:02.344Z,100.00
2023-01-13T07:00:05.453Z,100.00
2023-01-13T07:01:07.338Z,100.00
2023-01-13T07:02:10.712Z,100.00
2023-01-13T07:03:15.465Z,100.00
2023-01-13T07:04:17.213Z,100.00
2023-01-13T07:05:20.452Z,100.00
2023-01-13T07:06:23.729Z,100.00
2023-01-13T07:07:26.136Z,100.00
2023-01-13T07:08:28.871Z,100.00
2023-01-13T07:09:30.651Z,100.00
2023-01-13T07:10:34.696Z,100.00
2023-01-13T07:11:36.903Z,100.00
2023-01-13T07:13:00.069Z,100.00
2023-01-13T07:14:21.738Z,100.00
2023-01-13T07:15:24.505Z,100.00
2023-01-13T07:16:28.526Z,100.00
2023-01-13T07:17:31.682Z,100.00
2023-01-13T07:18:34.867Z,100.00
2023-01-13T07:19:37.038Z,100.00
2023-01-13T07:20:39.228Z,100.00
2023-01-13T07:21:45.963Z,100.00
2023-01-13T07:22:55.257Z,99.27
2023-01-13T07:23:57.690Z,97.89
2023-01-13T07:25:00.795Z,98.08
2023-01-13T07:26:02.650Z,96.05
2023-01-13T07:27:05.513Z,95.62
2023-01-13T07:28:07.756Z,95.61
2023-01-13T07:29:09.713Z,98.36
2023-01-13T07:30:14.158Z,97.92
2023-01-13T07:31:19.499Z,97.13
2023-01-13T07:32:21.689Z,96.23
2023-01-13T07:33:23.907Z,95.89
2023-01-13T07:34:25.570Z,97.17
2023-01-13T07:35:27.763Z,97.26
2023-01-13T07:36:30.042Z,99.49
2023-01-13T07:37:35.178Z,98.59
2023-01-13T07:38:40.029Z,99.61
2023-01-13T07:39:45.437Z,99.76
2023-01-13T07:40:51.040Z,98.93
2023-01-13T07:42:11.632Z,100.00
2023-01-13T07:43:32.240Z,100.00
2023-01-13T07:44:34.234Z,100.00
2023-01-13T07:45:37.521Z,100.00
2023-01-13T07:46:39.462Z,100.00
2023-01-13T07:47:41.700Z,100.00
2023-01-13T07:48:43.754Z,100.00
2023-01-13T07:49:45.335Z,100.00
2023-01-13T07:50:47.601Z,100.00
2023-01-13T07:51:51.651Z,100.00
2023-01-13T07:52:58.075Z,100.00
2023-01-13T07:54:00.009Z,100.00
2023-01-13T07:55:02.828Z,100.00
2023-01-13T07:56:07.286Z,100.00
2023-01-13T07:57:09.561Z,100.00
2023-01-13T07:58:12.480Z,100.00
2023-01-13T07:59:16.465Z,100.00
2023-01-13T08:00:19.579Z,100.00
2023-01-13T08:01:28.409Z,100.00
2023-01-13T08:02:31.719Z,100.00
2023-01-13T08:03:33.574Z,100.00
2023-01-13T08:04:35.839Z,100.00
2023-01-13T08:05:38.003Z,100.00
2023-01-13T08:06:41.634Z,100.00
2023-01-13T08:07:44.446Z,100.00
2023-01-13T08:08:46.978Z,100.00
2023-01-13T08:09:49.005Z,100.00
2023-01-13T08:10:51.604Z,100.00
2023-01-13T08:12:15.458Z,100.00
2023-01-13T08:13:22.956Z,100.00
2023-01-13T08:14:26.106Z,100.00
2023-01-13T08:15:40.036Z,100.00
2023-01-13T08:16:41.952Z,100.00
2023-01-13T08:17:43.830Z,100.00
2023-01-13T08:18:45.922Z,100.00
2023-01-13T08:19:50.560Z,100.00
2023-01-13T08:20:53.998Z,100.00
2023-01-13T08:21:57.294Z,100.00
2023-01-13T08:23:02.389Z,100.00
2023-01-13T08:24:04.606Z,100.00
2023-01-13T08:25:07.545Z,100.00
2023-01-13T08:26:16.023Z,100.00
2023-01-13T08:27:18.367Z,100.00
2023-01-13T08:28:20.379Z,100.00
2023-01-13T08:29:22.334Z,100.00
2023-01-13T08:30:24.276Z,100.00
2023-01-13T08:31:26.730Z,100.00
2023-01-13T08:32:32.375Z,100.00
2023-01-13T08:33:34.459Z,100.00
2023-01-13T08:34:37.604Z,100.00
2023-01-13T08:35:43.950Z,100.00
2023-01-13T08:36:45.593Z,100.00
2023-01-13T08:37:48.782Z,100.00
2023-01-13T08:38:52.985Z,100.00
2023-01-13T08:39:56.357Z,100.00
2023-01-13T08:40:59.459Z,100.00
2023-01-13T08:42:01.686Z,100.00
2023-01-13T08:43:05.223Z,100.00
2023-01-13T08:44:09.248Z,100.00
2023-01-13T08:45:15.988Z,100.00
2023-01-13T08:46:20.428Z,100.00
2023-01-13T08:47:22.696Z,100.00
2023-01-13T08:48:25.014Z,100.00
2023-01-13T08:49:27.067Z,100.00
2023-01-13T08:50:29.467Z,100.00
2023-01-13T08:51:31.575Z,100.00
2023-01-13T08:52:33.695Z,100.00
2023-01-13T08:53:35.796Z,100.00
2023-01-13T08:54:40.302Z,100.00
2023-01-13T08:55:44.205Z,100.00
2023-01-13T08:56:47.659Z,100.00
2023-01-13T08:57:50.113Z,100.00
2023-01-13T08:58:51.787Z,100.00
2023-01-13T08:59:54.168Z,100.00
2023-01-13T09:01:05.761Z,100.00
2023-01-13T09:02:19.103Z,100.00
2023-01-13T09:03:21.334Z,100.00
2023-01-13T09:04:25.895Z,100.00
2023-01-13T09:05:27.932Z,100.00
2023-01-13T09:06:31.875Z,100.00
2023-01-13T09:07:36.330Z,100.00
2023-01-13T09:08:38.497Z,100.00
2023-01-13T09:09:44.104Z,100.00
2023-01-13T09:10:46.099Z,100.00
2023-01-13T09:12:09.796Z,100.00
2023-01-13T09:13:14.204Z,100.00
2023-01-13T09:14:24.294Z,100.00
2023-01-13T09:15:30.865Z,100.00
2023-01-13T09:16:34.427Z,100.00
2023-01-13T09:17:37.146Z,100.00
2023-01-13T09:18:39.456Z,100.00
2023-01-13T09:19:42.986Z,100.00
2023-01-13T09:20:45.201Z,100.00
2023-01-13T09:21:47.572Z,100.00
2023-01-13T09:22:50.938Z,100.00
2023-01-13T09:23:55.399Z,100.00
2023-01-13T09:24:59.178Z,100.00
2023-01-13T09:26:01.016Z,100.00
2023-01-13T09:27:03.135Z,100.00
2023-01-13T09:28:07.107Z,100.00
2023-01-13T09:29:09.114Z,100.00
2023-01-13T09:30:11.509Z,100.00
2023-01-13T09:31:14.107Z,100.00
2023-01-13T09:32:16.598Z,100.00
2023-01-13T09:33:39.222Z,100.00
2023-01-13T09:35:00.353Z,100.00
2023-01-13T09:36:03.204Z,100.00
2023-01-13T09:37:06.936Z,100.00
2023-01-13T09:38:09.743Z,100.00
2023-01-13T09:39:14.434Z,100.00
2023-01-13T09:40:22.758Z,100.00
2023-01-13T09:41:47.143Z,100.00
2023-01-13T09:43:29.815Z,100.00
2023-01-13T09:45:05.408Z,100.00
2023-01-13T09:46:37.906Z,100.00
2023-01-13T09:48:01.275Z,100.00
2023-01-13T09:49:08.286Z,100.00
2023-01-13T09:50:22.443Z,100.00
2023-01-13T09:51:31.335Z,100.00
2023-01-13T09:52:33.448Z,100.00
2023-01-13T09:53:45.596Z,100.00
2023-01-13T09:55:03.601Z,100.00
2023-01-13T09:56:08.859Z,100.00
2023-01-13T09:57:14.129Z,100.00
2023-01-13T09:58:18.744Z,100.00
2023-01-13T09:59:22.613Z,100.00
2023-01-13T10:00:34.971Z,100.00
2023-01-13T10:01:52.154Z,100.00
2023-01-13T10:03:21.250Z,100.00
2023-01-13T10:04:24.121Z,100.00
2023-01-13T10:05:38.249Z,100.00
2023-01-13T10:06:43.220Z,100.00
2023-01-13T10:08:12.767Z,100.00
2023-01-13T10:09:45.237Z,100.00
2023-01-13T10:10:50.124Z,100.00
2023-01-13T10:12:13.754Z,100.00
2023-01-13T10:13:23.809Z,100.00
2023-01-13T10:14:44.332Z,100.00
2023-01-13T10:15:58.206Z,100.00
2023-01-13T10:17:21.713Z,100.00
2023-01-13T10:18:29.279Z,100.00
2023-01-13T10:20:04.807Z,100.00
2023-01-13T10:21:22.930Z,100.00
2023-01-13T10:23:02.303Z,100.00
2023-01-13T10:24:22.842Z,100.00
2023-01-13T10:25:47.487Z,100.00
2023-01-13T10:26:54.752Z,100.00
2023-01-13T10:28:02.084Z,100.00
2023-01-13T10:29:16.950Z,100.00
2023-01-13T10:30:26.030Z,100.00
2023-01-13T10:31:32.556Z,100.00
2023-01-13T10:32:34.209Z,100.00
2023-01-13T10:33:36.553Z,100.00
2023-01-13T10:34:52.964Z,100.00
2023-01-13T10:36:03.777Z,100.00
2023-01-13T10:37:07.400Z,100.00
2023-01-13T10:38:17.073Z,100.00
2023-01-13T10:39:21.801Z,100.00
2023-01-13T10:40:26.267Z,100.00
2023-01-13T10:41:28.461Z,100.00
2023-01-13T10:42:30.504Z,100.00
2023-01-13T10:43:33.162Z,100.00
2023-01-13T10:44:47.546Z,100.00
2023-01-13T10:45:59.188Z,100.00
2023-01-13T10:47:02.170Z,100.00
2023-01-13T10:48:11.453Z,100.00
2023-01-13T10:49:38.723Z,100.00
2023-01-13T10:50:44.801Z,100.00
2023-01-13T10:51:47.672Z,100.00
2023-01-13T10:53:19.633Z,100.00
2023-01-13T10:54:26.081Z,100.00
2023-01-13T10:55:33.536Z,100.00
2023-01-13T10:56:35.840Z,100.00
2023-01-13T10:57:38.586Z,100.00
2023-01-13T10:58:46.613Z,100.00
2023-01-13T10:59:51.259Z,100.00
2023-01-13T11:01:07.077Z,100.00
2023-01-13T11:02:24.722Z,100.00
2023-01-13T11:03:37.408Z,100.00
2023-01-13T11:04:44.594Z,100.00
2023-01-13T11:05:50.632Z,100.00
2023-01-13T11:06:55.331Z,100.00
2023-01-13T11:07:58.326Z,100.00
2023-01-13T11:09:00.625Z,100.00
2023-01-13T11:10:14.565Z,100.00
2023-01-13T11:11:40.275Z,100.00
2023-01-13T11:13:09.025Z,100.00
2023-01-13T11:14:33.174Z,100.00
2023-01-13T11:16:00.743Z,100.00
2023-01-13T11:17:10.863Z,100.00
2023-01-13T11:18:40.942Z,100.00
2023-01-13T11:19:50.951Z,100.00
2023-01-13T11:20:55.204Z,100.00
2023-01-13T11:22:12.846Z,100.00
2023-01-13T11:23:22.965Z,100.00
2023-01-13T11:24:51.880Z,100.00
2023-01-13T11:26:19.454Z,100.00
2023-01-13T11:27:36.484Z,100.00
2023-01-13T11:28:55.564Z,100.00
2023-01-13T11:30:30.470Z,100.00
2023-01-13T11:31:53.022Z,100.00
2023-01-13T11:33:05.493Z,100.00
2023-01-13T11:34:19.441Z,100.00
2023-01-13T11:35:22.004Z,100.00
2023-01-13T11:36:31.568Z,100.00
2023-01-13T11:37:41.752Z,100.00
2023-01-13T11:38:49.370Z,100.00
2023-01-13T11:40:05.694Z,100.00
2023-01-13T11:41:37.144Z,100.00
2023-01-13T11:43:08.083Z,100.00
2023-01-13T11:44:25.783Z,100.00
2023-01-13T11:45:42.419Z,100.00
2023-01-13T11:46:45.178Z,100.00
2023-01-13T11:47:51.128Z,100.00
2023-01-13T11:48:56.970Z,100.00
2023-01-13T11:50:00.323Z,100.00
2023-01-13T11:51:30.138Z,100.00
2023-01-13T11:53:00.339Z,100.00
2023-01-13T11:54:25.275Z,100.00
2023-01-13T11:55:42.029Z,100.00
2023-01-13T11:57:26.879Z,100.00
2023-01-13T11:59:05.834Z,100.00
2023-01-13T12:00:13.994Z,100.00
2023-01-13T12:01:37.224Z,100.00
2023-01-13T12:02:48.143Z,100.00
2023-01-13T12:04:26.516Z,100.00
2023-01-13T12:05:37.684Z,100.00
2023-01-13T12:06:41.688Z,100.00
2023-01-13T12:08:10.315Z,100.00
2023-01-13T12:09:37.709Z,100.00
2023-01-13T12:11:27.412Z,100.00
2023-01-13T12:12:36.003Z,98.75
2023-01-13T12:13:51.340Z,98.74
2023-01-13T12:15:30.225Z,95.83
2023-01-13T12:16:32.670Z,97.20
2023-01-13T12:17:54.169Z,90.35
2023-01-13T12:19:30.812Z,84.69
2023-01-13T12:21:13.055Z,87.93
2023-01-13T12:22:29.532Z,88.11
2023-01-13T12:23:45.135Z,95.25
2023-01-13T12:25:12.224Z,90.54
2023-01-13T12:26:16.769Z,91.98
2023-01-13T12:27:27.023Z,89.63
2023-01-13T12:28:47.004Z,85.84
2023-01-13T12:29:54.027Z,85.44
2023-01-13T12:31:02.617Z,86.65
2023-01-13T12:32:11.422Z,86.22
2023-01-13T12:33:50.960Z,87.83
2023-01-13T12:35:01.811Z,91.31
2023-01-13T12:36:22.047Z,88.20
2023-01-13T12:37:35.669Z,89.44
2023-01-13T12:38:46.787Z,90.69
2023-01-13T12:40:24.201Z,88.86
2023-01-13T12:41:35.186Z,90.32
2023-01-13T12:43:10.372Z,91.50
2023-01-13T12:44:18.521Z,93.37
2023-01-13T12:45:24.751Z,93.26
2023-01-13T12:46:28.662Z,93.60
2023-01-13T12:47:44.997Z,92.19
2023-01-13T12:48:57.055Z,94.34
2023-01-13T12:50:24.982Z,93.24
2023-01-13T12:51:39.397Z,90.24
2023-01-13T12:52:45.074Z,87.71
2023-01-13T12:53:49.293Z,83.40
2023-01-13T12:54:51.856Z,82.19
2023-01-13T12:55:54.749Z,83.43
2023-01-13T12:57:01.093Z,84.29
2023-01-13T12:58:07.055Z,81.49
2023-01-13T12:59:20.140Z,83.22
2023-01-13T13:00:23.939Z,79.70
2023-01-13T13:01:36.441Z,83.22
2023-01-13T13:02:41.524Z,85.74
2023-01-13T13:04:08.143Z,86.74
2023-01-13T13:05:25.200Z,88.35
2023-01-13T13:06:33.277Z,91.61
2023-01-13T13:07:44.539Z,92.89
2023-01-13T13:09:38.048Z,98.14
2023-01-13T13:13:18.927Z,100.00
2023-01-13T13:14:39.244Z,100.00
2023-01-13T13:15:42.735Z,100.00
2023-01-13T13:16:48.586Z,100.00
2023-01-13T13:17:59.681Z,100.00
2023-01-13T13:19:18.229Z,100.00
2023-01-13T13:20:56.449Z,100.00
2023-01-13T13:22:13.857Z,100.00
2023-01-13T13:23:47.967Z,100.00
2023-01-13T13:24:49.724Z,100.00
2023-01-13T13:26:25.146Z,100.00
2023-01-13T13:27:42.738Z,100.00
2023-01-13T13:28:53.742Z,100.00
2023-01-13T13:30:09.669Z,100.00
2023-01-13T13:31:28.251Z,100.00
2023-01-13T13:32:49.161Z,100.00
2023-01-13T13:33:59.672Z,100.00
2023-01-13T13:35:20.756Z,100.00
2023-01-13T13:36:28.539Z,100.00
2023-01-13T13:38:11.056Z,100.00
2023-01-13T13:39:41.115Z,100.00
2023-01-13T13:41:05.520Z,100.00
2023-01-13T13:42:38.981Z,100.00
2023-01-13T13:45:41.351Z,100.00
2023-01-13T13:46:49.751Z,100.00
2023-01-13T13:47:51.758Z,100.00
2023-01-13T13:48:55.537Z,100.00
2023-01-13T13:50:13.860Z,100.00
2023-01-13T13:51:42.070Z,100.00
2023-01-13T13:52:58.476Z,100.00
2023-01-13T13:54:03.722Z,100.00
2023-01-13T13:55:16.229Z,100.00
2023-01-13T13:56:35.320Z,100.00
2023-01-13T13:57:40.268Z,100.00
2023-01-13T13:58:44.889Z,100.00
2023-01-13T13:59:54.073Z,100.00
2023-01-13T14:00:59.182Z,100.00
2023-01-13T14:02:05.307Z,100.00
2023-01-13T14:03:31.474Z,100.00
2023-01-13T14:04:37.141Z,100.00
2023-01-13T14:05:40.997Z,100.00
2023-01-13T14:06:57.577Z,100.00
2023-01-13T14:08:00.988Z,100.00
2023-01-13T14:09:15.704Z,100.00
2023-01-13T14:10:28.865Z,100.00
2023-01-13T14:11:33.425Z,100.00
2023-01-13T14:12:39.594Z,100.00
2023-01-13T14:13:44.538Z,100.00
2023-01-13T14:14:48.811Z,100.00
2023-01-13T14:16:00.736Z,100.00
2023-01-13T14:17:08.669Z,100.00
2023-01-13T14:18:16.527Z,100.00
2023-01-13T14:19:33.289Z,100.00
2023-01-13T14:20:37.429Z,100.00
2023-01-13T14:21:39.931Z,100.00
2023-01-13T14:22:53.587Z,100.00
2023-01-13T14:24:00.757Z,100.00
2023-01-13T14:25:04.573Z,100.00
2023-01-13T14:26:15.492Z,100.00
2023-01-13T14:27:20.822Z,100.00
2023-01-13T14:28:34.364Z,100.00
2023-01-13T14:29:36.847Z,100.00
2023-01-13T14:30:42.816Z,100.00
2023-01-13T14:31:45.943Z,100.00
2023-01-13T14:32:50.815Z,100.00
2023-01-13T14:33:57.540Z,100.00
2023-01-13T14:34:59.845Z,100.00
2023-01-13T14:36:07.642Z,100.00
2023-01-13T14:37:40.917Z,100.00
2023-01-13T14:39:06.624Z,100.00